sensor_id;sensor_type;location;lat;lon;timestamp;P1;durP1;ratioP1;P2;durP2;ratioP2
4486;SDS011;2256;48.740;9.106;2023-03-01T00:02:11;24.77;;;12.27;;
4486;SDS011;2256;48.740;9.106;2023-03-01T00:04:38;31.80;;;13.55;;
4486;SDS011;2256;48.740;9.106;2023-03-01T00:07:05;30.08;;;13.20;;
4486;SDS011;2256;48.740;9.106;2023-03-01T00:09:33;26.77;;;12.15;;
4486;SDS011;2256;48.740;9.106;2023-03-01T00:12:01;26.27;;;12.35;;
4486;SDS011;2256;48.740;9.106;2023-03-01T00:14:28;26.67;;;11.20;;
4486;SDS011;2256;48.740;9.106;2023-03-01T00:16:55;48.95;;;10.57;;
4486;SDS011;2256;48.740;9.106;2023-03-01T00:19:22;23.17;;;10.30;;
4486;SDS011;2256;48.740;9.106;2023-03-01T00:21:49;23.50;;;11.23;;
4486;SDS011;2256;48.740;9.106;2023-03-01T00:24:15;24.33;;;10.90;;
4486;SDS011;2256;48.740;9.106;2023-03-01T00:26:44;20.40;;;10.93;;
4486;SDS011;2256;48.740;9.106;2023-03-01T00:29:11;22.83;;;10.48;;
4486;SDS011;2256;48.740;9.106;2023-03-01T00:31:38;26.00;;;11.25;;
4486;SDS011;2256;48.740;9.106;2023-03-01T00:34:05;27.35;;;11.95;;
4486;SDS011;2256;48.740;9.106;2023-03-01T00:36:32;31.67;;;11.93;;
4486;SDS011;2256;48.740;9.106;2023-03-01T00:39:00;24.15;;;10.82;;
4486;SDS011;2256;48.740;9.106;2023-03-01T00:41:29;23.58;;;11.85;;
4486;SDS011;2256;48.740;9.106;2023-03-01T00:43:57;22.55;;;11.70;;
4486;SDS011;2256;48.740;9.106;2023-03-01T00:46:25;31.52;;;11.43;;
4486;SDS011;2256;48.740;9.106;2023-03-01T00:48:52;20.02;;;10.98;;
4486;SDS011;2256;48.740;9.106;2023-03-01T00:51:20;25.90;;;11.57;;
4486;SDS011;2256;48.740;9.106;2023-03-01T00:53:49;24.35;;;11.45;;
4486;SDS011;2256;48.740;9.106;2023-03-01T00:56:17;26.13;;;10.50;;
4486;SDS011;2256;48.740;9.106;2023-03-01T00:58:44;22.35;;;10.50;;
4486;SDS011;2256;48.740;9.106;2023-03-01T01:01:12;24.58;;;11.60;;
4486;SDS011;2256;48.740;9.106;2023-03-01T01:03:43;27.23;;;11.05;;
4486;SDS011;2256;48.740;9.106;2023-03-01T01:06:15;20.83;;;10.43;;
4486;SDS011;2256;48.740;9.106;2023-03-01T01:08:44;23.73;;;11.48;;
4486;SDS011;2256;48.740;9.106;2023-03-01T01:11:11;29.50;;;12.02;;
4486;SDS011;2256;48.740;9.106;2023-03-01T01:13:39;24.02;;;10.88;;
4486;SDS011;2256;48.740;9.106;2023-03-01T01:16:07;27.75;;;11.40;;
4486;SDS011;2256;48.740;9.106;2023-03-01T01:18:36;23.75;;;11.35;;
4486;SDS011;2256;48.740;9.106;2023-03-01T01:21:03;27.02;;;10.20;;
4486;SDS011;2256;48.740;9.106;2023-03-01T01:23:31;23.50;;;11.18;;
4486;SDS011;2256;48.740;9.106;2023-03-01T01:26:02;26.75;;;11.75;;
4486;SDS011;2256;48.740;9.106;2023-03-01T01:28:30;38.58;;;11.98;;
4486;SDS011;2256;48.740;9.106;2023-03-01T01:30:58;31.45;;;11.82;;
4486;SDS011;2256;48.740;9.106;2023-03-01T01:33:25;22.65;;;10.88;;
4486;SDS011;2256;48.740;9.106;2023-03-01T01:35:53;27.60;;;12.13;;
4486;SDS011;2256;48.740;9.106;2023-03-01T01:38:20;27.73;;;12.77;;
4486;SDS011;2256;48.740;9.106;2023-03-01T01:40:47;35.05;;;12.93;;
4486;SDS011;2256;48.740;9.106;2023-03-01T01:43:17;30.48;;;13.48;;
4486;SDS011;2256;48.740;9.106;2023-03-01T01:45:46;28.80;;;11.93;;
4486;SDS011;2256;48.740;9.106;2023-03-01T01:48:14;30.88;;;12.80;;
4486;SDS011;2256;48.740;9.106;2023-03-01T01:50:49;30.33;;;11.80;;
4486;SDS011;2256;48.740;9.106;2023-03-01T01:53:22;24.88;;;11.68;;
4486;SDS011;2256;48.740;9.106;2023-03-01T01:55:51;29.23;;;13.35;;
4486;SDS011;2256;48.740;9.106;2023-03-01T01:58:24;27.27;;;12.43;;
4486;SDS011;2256;48.740;9.106;2023-03-01T02:00:53;28.60;;;11.85;;
4486;SDS011;2256;48.740;9.106;2023-03-01T02:03:22;28.70;;;12.57;;
4486;SDS011;2256;48.740;9.106;2023-03-01T02:05:55;30.40;;;13.75;;
4486;SDS011;2256;48.740;9.106;2023-03-01T02:08:29;31.92;;;13.40;;
4486;SDS011;2256;48.740;9.106;2023-03-01T02:11:00;32.33;;;12.98;;
4486;SDS011;2256;48.740;9.106;2023-03-01T02:13:29;37.53;;;13.63;;
4486;SDS011;2256;48.740;9.106;2023-03-01T02:15:57;31.90;;;12.82;;
4486;SDS011;2256;48.740;9.106;2023-03-01T02:18:24;35.75;;;13.70;;
4486;SDS011;2256;48.740;9.106;2023-03-01T02:20:55;32.45;;;15.48;;
4486;SDS011;2256;48.740;9.106;2023-03-01T02:23:33;29.30;;;13.65;;
4486;SDS011;2256;48.740;9.106;2023-03-01T02:26:02;34.60;;;14.90;;
4486;SDS011;2256;48.740;9.106;2023-03-01T02:28:35;26.38;;;13.25;;
4486;SDS011;2256;48.740;9.106;2023-03-01T02:31:03;37.08;;;14.20;;
4486;SDS011;2256;48.740;9.106;2023-03-01T02:33:50;33.05;;;13.43;;
4486;SDS011;2256;48.740;9.106;2023-03-01T02:36:18;31.92;;;13.32;;
4486;SDS011;2256;48.740;9.106;2023-03-01T02:38:46;32.53;;;14.50;;
4486;SDS011;2256;48.740;9.106;2023-03-01T02:41:15;32.03;;;15.20;;
4486;SDS011;2256;48.740;9.106;2023-03-01T02:43:44;32.45;;;14.70;;
4486;SDS011;2256;48.740;9.106;2023-03-01T02:46:16;32.70;;;14.02;;
4486;SDS011;2256;48.740;9.106;2023-03-01T02:48:44;22.35;;;11.52;;
4486;SDS011;2256;48.740;9.106;2023-03-01T02:51:24;28.55;;;13.50;;
4486;SDS011;2256;48.740;9.106;2023-03-01T02:54:13;32.60;;;13.25;;
4486;SDS011;2256;48.740;9.106;2023-03-01T02:56:47;31.50;;;14.57;;
4486;SDS011;2256;48.740;9.106;2023-03-01T02:59:17;33.78;;;13.55;;
4486;SDS011;2256;48.740;9.106;2023-03-01T03:01:46;33.55;;;14.95;;
4486;SDS011;2256;48.740;9.106;2023-03-01T03:04:13;26.70;;;13.50;;
4486;SDS011;2256;48.740;9.106;2023-03-01T03:06:42;31.88;;;13.35;;
4486;SDS011;2256;48.740;9.106;2023-03-01T03:09:10;37.85;;;13.88;;
4486;SDS011;2256;48.740;9.106;2023-03-01T03:11:38;37.72;;;14.60;;
4486;SDS011;2256;48.740;9.106;2023-03-01T03:14:06;29.42;;;14.07;;
4486;SDS011;2256;48.740;9.106;2023-03-01T03:16:39;30.30;;;14.77;;
4486;SDS011;2256;48.740;9.106;2023-03-01T03:19:07;29.98;;;14.00;;
4486;SDS011;2256;48.740;9.106;2023-03-01T03:21:34;31.27;;;15.23;;
4486;SDS011;2256;48.740;9.106;2023-03-01T03:24:02;38.22;;;15.07;;
4486;SDS011;2256;48.740;9.106;2023-03-01T03:26:30;38.50;;;14.45;;
4486;SDS011;2256;48.740;9.106;2023-03-01T03:28:57;31.60;;;13.93;;
4486;SDS011;2256;48.740;9.106;2023-03-01T03:31:24;31.83;;;13.60;;
4486;SDS011;2256;48.740;9.106;2023-03-01T03:33:53;33.97;;;15.50;;
4486;SDS011;2256;48.740;9.106;2023-03-01T03:36:22;30.95;;;14.23;;
4486;SDS011;2256;48.740;9.106;2023-03-01T03:38:53;30.00;;;15.77;;
4486;SDS011;2256;48.740;9.106;2023-03-01T03:41:20;32.97;;;15.02;;
4486;SDS011;2256;48.740;9.106;2023-03-01T03:43:46;33.03;;;15.55;;
4486;SDS011;2256;48.740;9.106;2023-03-01T03:46:13;30.33;;;15.25;;
4486;SDS011;2256;48.740;9.106;2023-03-01T03:48:42;29.40;;;13.77;;
4486;SDS011;2256;48.740;9.106;2023-03-01T03:51:12;27.58;;;12.68;;
4486;SDS011;2256;48.740;9.106;2023-03-01T03:53:41;33.40;;;14.45;;
4486;SDS011;2256;48.740;9.106;2023-03-01T03:56:08;35.65;;;15.43;;
4486;SDS011;2256;48.740;9.106;2023-03-01T03:58:37;32.55;;;14.90;;
4486;SDS011;2256;48.740;9.106;2023-03-01T04:01:04;35.03;;;15.18;;
4486;SDS011;2256;48.740;9.106;2023-03-01T04:03:32;30.38;;;13.60;;
4486;SDS011;2256;48.740;9.106;2023-03-01T04:06:00;37.13;;;14.90;;
4486;SDS011;2256;48.740;9.106;2023-03-01T04:08:28;39.95;;;14.50;;
4486;SDS011;2256;48.740;9.106;2023-03-01T04:10:59;29.25;;;13.15;;
4486;SDS011;2256;48.740;9.106;2023-03-01T04:13:49;32.90;;;15.15;;
4486;SDS011;2256;48.740;9.106;2023-03-01T04:16:16;36.65;;;16.33;;
4486;SDS011;2256;48.740;9.106;2023-03-01T04:18:43;33.80;;;15.45;;
4486;SDS011;2256;48.740;9.106;2023-03-01T04:21:10;35.38;;;15.38;;
4486;SDS011;2256;48.740;9.106;2023-03-01T04:23:39;38.13;;;17.10;;
4486;SDS011;2256;48.740;9.106;2023-03-01T04:26:06;34.78;;;14.73;;
4486;SDS011;2256;48.740;9.106;2023-03-01T04:28:34;28.95;;;13.80;;
4486;SDS011;2256;48.740;9.106;2023-03-01T04:31:03;33.38;;;14.30;;
4486;SDS011;2256;48.740;9.106;2023-03-01T04:33:37;35.03;;;15.75;;
4486;SDS011;2256;48.740;9.106;2023-03-01T04:36:06;34.35;;;15.50;;
4486;SDS011;2256;48.740;9.106;2023-03-01T04:38:34;34.47;;;15.35;;
4486;SDS011;2256;48.740;9.106;2023-03-01T04:41:04;35.33;;;14.63;;
4486;SDS011;2256;48.740;9.106;2023-03-01T04:43:31;33.22;;;15.13;;
4486;SDS011;2256;48.740;9.106;2023-03-01T04:46:02;32.60;;;15.23;;
4486;SDS011;2256;48.740;9.106;2023-03-01T04:48:32;40.13;;;15.63;;
4486;SDS011;2256;48.740;9.106;2023-03-01T04:50:59;34.38;;;14.40;;
4486;SDS011;2256;48.740;9.106;2023-03-01T04:53:26;32.22;;;15.23;;
4486;SDS011;2256;48.740;9.106;2023-03-01T04:55:54;31.58;;;13.10;;
4486;SDS011;2256;48.740;9.106;2023-03-01T04:58:23;34.10;;;15.23;;
4486;SDS011;2256;48.740;9.106;2023-03-01T05:00:51;34.70;;;15.23;;
4486;SDS011;2256;48.740;9.106;2023-03-01T05:03:19;38.30;;;15.23;;
4486;SDS011;2256;48.740;9.106;2023-03-01T05:05:47;44.42;;;16.00;;
4486;SDS011;2256;48.740;9.106;2023-03-01T05:08:15;38.08;;;15.27;;
4486;SDS011;2256;48.740;9.106;2023-03-01T05:10:44;38.95;;;16.65;;
4486;SDS011;2256;48.740;9.106;2023-03-01T05:13:12;33.17;;;15.13;;
4486;SDS011;2256;48.740;9.106;2023-03-01T05:15:41;35.40;;;13.80;;
4486;SDS011;2256;48.740;9.106;2023-03-01T05:18:08;34.50;;;15.57;;
4486;SDS011;2256;48.740;9.106;2023-03-01T05:20:36;32.13;;;14.02;;
4486;SDS011;2256;48.740;9.106;2023-03-01T05:23:04;38.33;;;14.60;;
4486;SDS011;2256;48.740;9.106;2023-03-01T05:25:31;30.77;;;14.35;;
4486;SDS011;2256;48.740;9.106;2023-03-01T05:27:59;34.45;;;14.50;;
4486;SDS011;2256;48.740;9.106;2023-03-01T05:30:29;33.00;;;13.88;;
4486;SDS011;2256;48.740;9.106;2023-03-01T05:32:59;37.78;;;16.05;;
4486;SDS011;2256;48.740;9.106;2023-03-01T05:35:26;34.97;;;16.08;;
4486;SDS011;2256;48.740;9.106;2023-03-01T05:37:54;33.97;;;15.65;;
4486;SDS011;2256;48.740;9.106;2023-03-01T05:40:22;38.85;;;15.60;;
4486;SDS011;2256;48.740;9.106;2023-03-01T05:42:50;39.50;;;15.15;;
4486;SDS011;2256;48.740;9.106;2023-03-01T05:45:18;36.80;;;16.45;;
4486;SDS011;2256;48.740;9.106;2023-03-01T05:47:46;37.58;;;16.27;;
4486;SDS011;2256;48.740;9.106;2023-03-01T05:50:15;31.42;;;14.70;;
4486;SDS011;2256;48.740;9.106;2023-03-01T05:52:46;31.98;;;15.07;;
4486;SDS011;2256;48.740;9.106;2023-03-01T05:55:13;37.05;;;16.20;;
4486;SDS011;2256;48.740;9.106;2023-03-01T05:57:40;32.13;;;13.80;;
4486;SDS011;2256;48.740;9.106;2023-03-01T06:00:07;34.63;;;14.98;;
4486;SDS011;2256;48.740;9.106;2023-03-01T06:02:35;34.78;;;14.10;;
4486;SDS011;2256;48.740;9.106;2023-03-01T06:05:04;39.08;;;16.77;;
4486;SDS011;2256;48.740;9.106;2023-03-01T06:07:33;34.22;;;15.77;;
4486;SDS011;2256;48.740;9.106;2023-03-01T06:10:01;34.10;;;14.70;;
4486;SDS011;2256;48.740;9.106;2023-03-01T06:12:29;35.75;;;15.95;;
4486;SDS011;2256;48.740;9.106;2023-03-01T06:14:57;28.65;;;14.25;;
4486;SDS011;2256;48.740;9.106;2023-03-01T06:17:24;34.47;;;16.23;;
4486;SDS011;2256;48.740;9.106;2023-03-01T06:19:52;35.17;;;15.57;;
4486;SDS011;2256;48.740;9.106;2023-03-01T06:22:19;31.48;;;15.68;;
4486;SDS011;2256;48.740;9.106;2023-03-01T06:24:47;34.28;;;15.63;;
4486;SDS011;2256;48.740;9.106;2023-03-01T06:27:14;34.67;;;14.73;;
4486;SDS011;2256;48.740;9.106;2023-03-01T06:29:40;34.30;;;15.35;;
4486;SDS011;2256;48.740;9.106;2023-03-01T06:32:07;36.30;;;14.18;;
4486;SDS011;2256;48.740;9.106;2023-03-01T06:34:34;35.75;;;14.95;;
4486;SDS011;2256;48.740;9.106;2023-03-01T06:37:01;39.30;;;16.60;;
4486;SDS011;2256;48.740;9.106;2023-03-01T06:39:30;35.80;;;15.98;;
4486;SDS011;2256;48.740;9.106;2023-03-01T06:41:58;40.08;;;15.02;;
4486;SDS011;2256;48.740;9.106;2023-03-01T06:44:26;38.28;;;15.48;;
4486;SDS011;2256;48.740;9.106;2023-03-01T06:46:53;34.83;;;17.15;;
4486;SDS011;2256;48.740;9.106;2023-03-01T06:49:20;34.22;;;15.68;;
4486;SDS011;2256;48.740;9.106;2023-03-01T06:51:47;35.45;;;16.50;;
4486;SDS011;2256;48.740;9.106;2023-03-01T06:54:14;35.78;;;15.40;;
4486;SDS011;2256;48.740;9.106;2023-03-01T06:56:42;28.55;;;14.82;;
4486;SDS011;2256;48.740;9.106;2023-03-01T06:59:11;36.15;;;14.85;;
4486;SDS011;2256;48.740;9.106;2023-03-01T07:01:37;34.92;;;14.90;;
4486;SDS011;2256;48.740;9.106;2023-03-01T07:04:04;32.20;;;15.35;;
4486;SDS011;2256;48.740;9.106;2023-03-01T07:06:31;30.70;;;13.82;;
4486;SDS011;2256;48.740;9.106;2023-03-01T07:08:59;33.78;;;14.02;;
4486;SDS011;2256;48.740;9.106;2023-03-01T07:11:26;31.80;;;14.65;;
4486;SDS011;2256;48.740;9.106;2023-03-01T07:13:53;33.25;;;15.52;;
4486;SDS011;2256;48.740;9.106;2023-03-01T07:16:21;32.85;;;14.43;;
4486;SDS011;2256;48.740;9.106;2023-03-01T07:18:48;37.45;;;15.57;;
4486;SDS011;2256;48.740;9.106;2023-03-01T07:21:15;35.85;;;15.57;;
4486;SDS011;2256;48.740;9.106;2023-03-01T07:23:42;35.92;;;16.33;;
4486;SDS011;2256;48.740;9.106;2023-03-01T07:26:09;37.85;;;16.67;;
4486;SDS011;2256;48.740;9.106;2023-03-01T07:28:36;36.40;;;15.85;;
4486;SDS011;2256;48.740;9.106;2023-03-01T07:31:04;35.17;;;14.88;;
4486;SDS011;2256;48.740;9.106;2023-03-01T07:33:33;37.50;;;16.40;;
4486;SDS011;2256;48.740;9.106;2023-03-01T07:36:02;34.45;;;15.55;;
4486;SDS011;2256;48.740;9.106;2023-03-01T07:38:29;36.15;;;15.18;;
4486;SDS011;2256;48.740;9.106;2023-03-01T07:41:03;40.15;;;15.88;;
4486;SDS011;2256;48.740;9.106;2023-03-01T07:43:31;38.72;;;15.68;;
4486;SDS011;2256;48.740;9.106;2023-03-01T07:46:00;33.20;;;14.65;;
4486;SDS011;2256;48.740;9.106;2023-03-01T07:48:28;37.95;;;16.08;;
4486;SDS011;2256;48.740;9.106;2023-03-01T07:50:58;33.80;;;16.13;;
4486;SDS011;2256;48.740;9.106;2023-03-01T07:53:27;39.38;;;15.45;;
4486;SDS011;2256;48.740;9.106;2023-03-01T07:56:04;37.20;;;16.80;;
4486;SDS011;2256;48.740;9.106;2023-03-01T07:58:33;34.53;;;16.05;;
4486;SDS011;2256;48.740;9.106;2023-03-01T08:01:00;31.83;;;15.57;;
4486;SDS011;2256;48.740;9.106;2023-03-01T08:03:27;30.55;;;14.15;;
4486;SDS011;2256;48.740;9.106;2023-03-01T08:05:54;32.60;;;15.75;;
4486;SDS011;2256;48.740;9.106;2023-03-01T08:08:22;32.40;;;14.75;;
4486;SDS011;2256;48.740;9.106;2023-03-01T08:10:51;32.97;;;17.00;;
4486;SDS011;2256;48.740;9.106;2023-03-01T08:13:18;39.03;;;17.42;;
4486;SDS011;2256;48.740;9.106;2023-03-01T08:15:48;35.50;;;16.67;;
4486;SDS011;2256;48.740;9.106;2023-03-01T08:18:15;33.13;;;15.32;;
4486;SDS011;2256;48.740;9.106;2023-03-01T08:20:42;35.67;;;17.02;;
4486;SDS011;2256;48.740;9.106;2023-03-01T08:23:09;39.17;;;17.40;;
4486;SDS011;2256;48.740;9.106;2023-03-01T08:25:37;37.65;;;15.52;;
4486;SDS011;2256;48.740;9.106;2023-03-01T08:28:05;36.13;;;16.38;;
4486;SDS011;2256;48.740;9.106;2023-03-01T08:30:32;38.53;;;17.17;;
4486;SDS011;2256;48.740;9.106;2023-03-01T08:32:59;36.92;;;14.70;;
4486;SDS011;2256;48.740;9.106;2023-03-01T08:35:26;36.85;;;16.00;;
4486;SDS011;2256;48.740;9.106;2023-03-01T08:37:53;43.97;;;18.33;;
4486;SDS011;2256;48.740;9.106;2023-03-01T08:40:20;35.17;;;15.55;;
4486;SDS011;2256;48.740;9.106;2023-03-01T08:42:48;39.63;;;15.93;;
4486;SDS011;2256;48.740;9.106;2023-03-01T08:45:15;29.75;;;15.50;;
4486;SDS011;2256;48.740;9.106;2023-03-01T08:47:43;29.08;;;15.43;;
4486;SDS011;2256;48.740;9.106;2023-03-01T08:50:11;34.05;;;16.90;;
4486;SDS011;2256;48.740;9.106;2023-03-01T08:52:38;50.88;;;17.83;;
4486;SDS011;2256;48.740;9.106;2023-03-01T08:55:06;36.58;;;16.85;;
4486;SDS011;2256;48.740;9.106;2023-03-01T08:57:33;32.47;;;15.82;;
4486;SDS011;2256;48.740;9.106;2023-03-01T09:00:02;31.45;;;15.70;;
4486;SDS011;2256;48.740;9.106;2023-03-01T09:02:34;37.22;;;17.73;;
4486;SDS011;2256;48.740;9.106;2023-03-01T09:05:01;31.92;;;16.90;;
4486;SDS011;2256;48.740;9.106;2023-03-01T09:07:28;40.92;;;18.00;;
4486;SDS011;2256;48.740;9.106;2023-03-01T09:09:54;36.05;;;16.77;;
4486;SDS011;2256;48.740;9.106;2023-03-01T09:12:21;40.95;;;18.50;;
4486;SDS011;2256;48.740;9.106;2023-03-01T09:14:49;32.90;;;16.25;;
4486;SDS011;2256;48.740;9.106;2023-03-01T09:17:18;35.90;;;16.30;;
4486;SDS011;2256;48.740;9.106;2023-03-01T09:19:46;46.30;;;18.77;;
4486;SDS011;2256;48.740;9.106;2023-03-01T09:22:13;33.03;;;16.50;;
4486;SDS011;2256;48.740;9.106;2023-03-01T09:24:40;40.08;;;16.85;;
4486;SDS011;2256;48.740;9.106;2023-03-01T09:27:07;41.75;;;20.58;;
4486;SDS011;2256;48.740;9.106;2023-03-01T09:29:33;39.17;;;16.50;;
4486;SDS011;2256;48.740;9.106;2023-03-01T09:32:01;33.95;;;16.48;;
4486;SDS011;2256;48.740;9.106;2023-03-01T09:34:29;33.50;;;17.30;;
4486;SDS011;2256;48.740;9.106;2023-03-01T09:36:57;35.60;;;16.70;;
4486;SDS011;2256;48.740;9.106;2023-03-01T09:39:25;38.72;;;16.95;;
4486;SDS011;2256;48.740;9.106;2023-03-01T09:41:54;32.55;;;15.45;;
4486;SDS011;2256;48.740;9.106;2023-03-01T09:44:28;44.25;;;18.08;;
4486;SDS011;2256;48.740;9.106;2023-03-01T09:46:59;32.13;;;16.67;;
4486;SDS011;2256;48.740;9.106;2023-03-01T09:49:28;34.63;;;16.20;;
4486;SDS011;2256;48.740;9.106;2023-03-01T09:51:59;38.65;;;16.92;;
4486;SDS011;2256;48.740;9.106;2023-03-01T09:54:29;36.60;;;17.65;;
4486;SDS011;2256;48.740;9.106;2023-03-01T09:57:00;33.85;;;17.48;;
4486;SDS011;2256;48.740;9.106;2023-03-01T09:59:34;36.00;;;16.75;;
4486;SDS011;2256;48.740;9.106;2023-03-01T10:02:14;34.60;;;16.17;;
4486;SDS011;2256;48.740;9.106;2023-03-01T10:04:52;42.88;;;15.73;;
4486;SDS011;2256;48.740;9.106;2023-03-01T10:07:27;45.67;;;16.58;;
4486;SDS011;2256;48.740;9.106;2023-03-01T10:09:58;42.63;;;17.90;;
4486;SDS011;2256;48.740;9.106;2023-03-01T10:12:30;52.45;;;19.13;;
4486;SDS011;2256;48.740;9.106;2023-03-01T10:15:04;34.20;;;17.20;;
4486;SDS011;2256;48.740;9.106;2023-03-01T10:17:36;40.38;;;16.75;;
4486;SDS011;2256;48.740;9.106;2023-03-01T10:20:13;38.55;;;17.25;;
4486;SDS011;2256;48.740;9.106;2023-03-01T10:22:42;35.22;;;15.55;;
4486;SDS011;2256;48.740;9.106;2023-03-01T10:25:14;34.15;;;16.73;;
4486;SDS011;2256;48.740;9.106;2023-03-01T10:27:44;34.60;;;15.57;;
4486;SDS011;2256;48.740;9.106;2023-03-01T10:30:16;36.22;;;16.40;;
4486;SDS011;2256;48.740;9.106;2023-03-01T10:32:45;34.10;;;15.95;;
4486;SDS011;2256;48.740;9.106;2023-03-01T10:35:17;32.03;;;15.40;;
4486;SDS011;2256;48.740;9.106;2023-03-01T10:37:56;36.35;;;16.63;;
4486;SDS011;2256;48.740;9.106;2023-03-01T10:40:23;23.35;;;10.45;;
4486;SDS011;2256;48.740;9.106;2023-03-01T10:42:50;29.90;;;15.32;;
4486;SDS011;2256;48.740;9.106;2023-03-01T10:45:25;35.60;;;16.23;;
4486;SDS011;2256;48.740;9.106;2023-03-01T10:48:06;35.45;;;15.95;;
4486;SDS011;2256;48.740;9.106;2023-03-01T10:50:40;36.53;;;16.70;;
4486;SDS011;2256;48.740;9.106;2023-03-01T10:53:18;36.85;;;17.23;;
4486;SDS011;2256;48.740;9.106;2023-03-01T10:55:48;34.20;;;15.25;;
4486;SDS011;2256;48.740;9.106;2023-03-01T10:58:24;31.23;;;15.90;;
4486;SDS011;2256;48.740;9.106;2023-03-01T11:00:52;41.92;;;17.05;;
4486;SDS011;2256;48.740;9.106;2023-03-01T11:03:21;29.00;;;15.05;;
4486;SDS011;2256;48.740;9.106;2023-03-01T11:05:55;29.42;;;13.38;;
4486;SDS011;2256;48.740;9.106;2023-03-01T11:08:32;30.92;;;16.52;;
4486;SDS011;2256;48.740;9.106;2023-03-01T11:11:05;33.38;;;15.45;;
4486;SDS011;2256;48.740;9.106;2023-03-01T11:13:51;35.42;;;16.50;;
4486;SDS011;2256;48.740;9.106;2023-03-01T11:16:24;32.90;;;16.17;;
4486;SDS011;2256;48.740;9.106;2023-03-01T11:19:00;36.10;;;16.42;;
4486;SDS011;2256;48.740;9.106;2023-03-01T11:21:43;39.03;;;17.00;;
4486;SDS011;2256;48.740;9.106;2023-03-01T11:24:17;37.65;;;16.10;;
4486;SDS011;2256;48.740;9.106;2023-03-01T11:26:50;32.10;;;15.77;;
4486;SDS011;2256;48.740;9.106;2023-03-01T11:29:21;38.80;;;15.57;;
4486;SDS011;2256;48.740;9.106;2023-03-01T11:31:55;33.55;;;14.68;;
4486;SDS011;2256;48.740;9.106;2023-03-01T11:34:28;34.38;;;16.42;;
4486;SDS011;2256;48.740;9.106;2023-03-01T11:37:08;32.47;;;16.20;;
4486;SDS011;2256;48.740;9.106;2023-03-01T11:39:49;38.30;;;15.75;;
4486;SDS011;2256;48.740;9.106;2023-03-01T11:42:22;32.33;;;15.32;;
4486;SDS011;2256;48.740;9.106;2023-03-01T11:44:56;32.05;;;14.70;;
4486;SDS011;2256;48.740;9.106;2023-03-01T11:47:33;27.27;;;12.45;;
4486;SDS011;2256;48.740;9.106;2023-03-01T11:50:14;33.13;;;16.13;;
4486;SDS011;2256;48.740;9.106;2023-03-01T11:52:51;31.00;;;14.82;;
4486;SDS011;2256;48.740;9.106;2023-03-01T11:55:36;36.45;;;15.57;;
4486;SDS011;2256;48.740;9.106;2023-03-01T11:58:22;35.28;;;16.00;;
4486;SDS011;2256;48.740;9.106;2023-03-01T12:01:03;35.83;;;17.02;;
4486;SDS011;2256;48.740;9.106;2023-03-01T12:03:53;34.58;;;16.38;;
4486;SDS011;2256;48.740;9.106;2023-03-01T12:06:47;32.83;;;15.57;;
4486;SDS011;2256;48.740;9.106;2023-03-01T12:09:27;31.63;;;15.25;;
4486;SDS011;2256;48.740;9.106;2023-03-01T12:12:16;39.88;;;15.07;;
4486;SDS011;2256;48.740;9.106;2023-03-01T12:15:19;32.53;;;14.90;;
4486;SDS011;2256;48.740;9.106;2023-03-01T12:18:18;31.02;;;14.05;;
4486;SDS011;2256;48.740;9.106;2023-03-01T12:21:14;31.48;;;16.83;;
4486;SDS011;2256;48.740;9.106;2023-03-01T12:26:59;30.88;;;15.52;;
4486;SDS011;2256;48.740;9.106;2023-03-01T12:29:41;37.22;;;15.30;;
4486;SDS011;2256;48.740;9.106;2023-03-01T12:32:15;31.00;;;15.73;;
4486;SDS011;2256;48.740;9.106;2023-03-01T12:34:57;37.38;;;15.35;;
4486;SDS011;2256;48.740;9.106;2023-03-01T12:37:47;33.30;;;14.90;;
4486;SDS011;2256;48.740;9.106;2023-03-01T12:40:31;36.17;;;16.05;;
4486;SDS011;2256;48.740;9.106;2023-03-01T12:43:12;30.65;;;14.85;;
4486;SDS011;2256;48.740;9.106;2023-03-01T12:45:50;32.13;;;15.00;;
4486;SDS011;2256;48.740;9.106;2023-03-01T12:48:30;35.97;;;15.40;;
4486;SDS011;2256;48.740;9.106;2023-03-01T12:51:06;31.43;;;15.17;;
4486;SDS011;2256;48.740;9.106;2023-03-01T12:53:38;26.95;;;13.60;;
4486;SDS011;2256;48.740;9.106;2023-03-01T12:56:09;26.75;;;13.88;;
4486;SDS011;2256;48.740;9.106;2023-03-01T12:58:39;28.45;;;14.30;;
4486;SDS011;2256;48.740;9.106;2023-03-01T13:01:15;35.25;;;14.80;;
4486;SDS011;2256;48.740;9.106;2023-03-01T13:04:06;25.98;;;12.52;;
4486;SDS011;2256;48.740;9.106;2023-03-01T13:06:41;33.00;;;13.50;;
4486;SDS011;2256;48.740;9.106;2023-03-01T13:09:16;28.92;;;14.30;;
4486;SDS011;2256;48.740;9.106;2023-03-01T13:11:50;29.83;;;12.93;;
4486;SDS011;2256;48.740;9.106;2023-03-01T13:14:35;32.50;;;13.80;;
4486;SDS011;2256;48.740;9.106;2023-03-01T13:20:11;30.05;;;12.77;;
4486;SDS011;2256;48.740;9.106;2023-03-01T13:22:40;30.30;;;14.23;;
4486;SDS011;2256;48.740;9.106;2023-03-01T13:25:15;29.45;;;14.00;;
4486;SDS011;2256;48.740;9.106;2023-03-01T13:27:45;23.20;;;13.25;;
4486;SDS011;2256;48.740;9.106;2023-03-01T13:36:06;31.23;;;13.95;;
4486;SDS011;2256;48.740;9.106;2023-03-01T13:38:36;30.05;;;14.25;;
4486;SDS011;2256;48.740;9.106;2023-03-01T13:41:04;29.02;;;12.48;;
4486;SDS011;2256;48.740;9.106;2023-03-01T13:43:34;33.25;;;14.90;;
4486;SDS011;2256;48.740;9.106;2023-03-01T13:46:02;28.23;;;13.70;;
4486;SDS011;2256;48.740;9.106;2023-03-01T13:48:36;30.88;;;14.75;;
4486;SDS011;2256;48.740;9.106;2023-03-01T13:51:04;30.05;;;14.90;;
4486;SDS011;2256;48.740;9.106;2023-03-01T13:53:35;33.22;;;15.00;;
4486;SDS011;2256;48.740;9.106;2023-03-01T13:56:07;30.90;;;15.35;;
4486;SDS011;2256;48.740;9.106;2023-03-01T13:58:46;34.90;;;16.50;;
4486;SDS011;2256;48.740;9.106;2023-03-01T14:01:23;28.02;;;14.00;;
4486;SDS011;2256;48.740;9.106;2023-03-01T14:03:52;35.58;;;16.08;;
4486;SDS011;2256;48.740;9.106;2023-03-01T14:06:20;33.10;;;13.80;;
4486;SDS011;2256;48.740;9.106;2023-03-01T14:08:48;31.88;;;14.98;;
4486;SDS011;2256;48.740;9.106;2023-03-01T14:11:31;38.30;;;15.75;;
4486;SDS011;2256;48.740;9.106;2023-03-01T14:17:16;33.28;;;16.20;;
4486;SDS011;2256;48.740;9.106;2023-03-01T14:20:00;34.65;;;14.35;;
4486;SDS011;2256;48.740;9.106;2023-03-01T14:22:31;45.35;;;15.52;;
4486;SDS011;2256;48.740;9.106;2023-03-01T14:25:01;30.20;;;14.80;;
4486;SDS011;2256;48.740;9.106;2023-03-01T14:27:32;30.95;;;14.50;;
4486;SDS011;2256;48.740;9.106;2023-03-01T14:30:12;38.28;;;15.55;;
4486;SDS011;2256;48.740;9.106;2023-03-01T14:32:51;32.20;;;15.95;;
4486;SDS011;2256;48.740;9.106;2023-03-01T14:35:20;37.78;;;16.63;;
4486;SDS011;2256;48.740;9.106;2023-03-01T14:37:48;32.17;;;15.85;;
4486;SDS011;2256;48.740;9.106;2023-03-01T14:40:20;40.92;;;16.35;;
4486;SDS011;2256;48.740;9.106;2023-03-01T14:42:49;33.25;;;16.50;;
4486;SDS011;2256;48.740;9.106;2023-03-01T14:45:18;37.58;;;17.23;;
4486;SDS011;2256;48.740;9.106;2023-03-01T14:47:45;34.28;;;16.05;;
4486;SDS011;2256;48.740;9.106;2023-03-01T14:50:15;35.55;;;16.08;;
4486;SDS011;2256;48.740;9.106;2023-03-01T14:52:46;39.08;;;16.33;;
4486;SDS011;2256;48.740;9.106;2023-03-01T14:55:16;32.42;;;15.68;;
4486;SDS011;2256;48.740;9.106;2023-03-01T14:57:46;38.30;;;15.75;;
4486;SDS011;2256;48.740;9.106;2023-03-01T15:00:16;40.30;;;17.58;;
4486;SDS011;2256;48.740;9.106;2023-03-01T15:02:47;36.33;;;16.50;;
4486;SDS011;2256;48.740;9.106;2023-03-01T15:05:16;35.47;;;15.70;;
4486;SDS011;2256;48.740;9.106;2023-03-01T15:07:49;36.13;;;17.17;;
4486;SDS011;2256;48.740;9.106;2023-03-01T15:10:19;42.13;;;16.55;;
4486;SDS011;2256;48.740;9.106;2023-03-01T15:12:48;37.25;;;15.95;;
4486;SDS011;2256;48.740;9.106;2023-03-01T15:18:17;34.85;;;17.63;;
4486;SDS011;2256;48.740;9.106;2023-03-01T15:20:45;35.35;;;16.85;;
4486;SDS011;2256;48.740;9.106;2023-03-01T15:23:18;36.80;;;16.52;;
4486;SDS011;2256;48.740;9.106;2023-03-01T15:25:47;31.52;;;13.25;;
4486;SDS011;2256;48.740;9.106;2023-03-01T15:28:21;36.25;;;16.10;;